ADDS METAR Data INFO
IDs: Format: Raw Decoded Include TAF

Data at: 0545 UTC 22 Nov 2017

KCLL 220453Z AUTO 03010KT 10SM OVC011 16/14 A3010 RMK AO2 SLP191 T01610144
KCLL 220427Z AUTO 04014KT 10SM OVC011 17/15 A3009 RMK AO2 T01670150
KCLL 220353Z AUTO 04011KT 10SM BKN009 BKN042 OVC050 17/15 A3008 RMK AO2 SLP184 T01670150
KCLL 220253Z AUTO 03009KT 10SM CLR 17/16 A3004 RMK AO2 SLP170 T01720156 53035
KCLL 220153Z 04013KT 10SM CLR 19/16 A3000 RMK AO2 SLP155 T01890156
KCLL 220053Z 04008KT 10SM CLR 20/14 A2995 RMK AO2 SLP141 T02000144
KCLL 212353Z 01008KT 10SM CLR 21/14 A2994 RMK AO2 SLP134 T02110144 10233 20200 53024
KCLL 212253Z 04006KT 10SM BKN042 BKN050 22/14 A2990 RMK AO2 SLP123 T02220144
KCLL 212153Z VRB03KT 10SM CLR 23/14 A2988 RMK AO2 SLP115 T02330144
KCLL 212053Z 00000KT 10SM CLR 23/14 A2986 RMK AO2 SLP110 T02280144 56008
KCLL 211953Z VRB05KT 10SM FEW030 23/15 A2987 RMK AO2 SLP111 T02280150
KCLL 211853Z 15007KT 10SM FEW024 22/15 A2988 RMK AO2 SLP114 T02220150
KCLL 211753Z 20008KT 10SM SCT025 20/15 A2989 RMK AO2 SLP118 T02000150 10206 20111 56010
KCLL 211751Z 19008KT 10SM SCT025 21/15 A2989 RMK AO2
KCLL 211710Z 20008KT 10SM BKN017 BKN024 19/15 A2990 RMK AO2 T01940150
KCLL 211653Z 19008KT 10SM SCT015 19/15 A2990 RMK AO2 SLP121 T01890150
KCLL 211553Z 20006KT 10SM CLR 17/14 A2992 RMK AO2 SLP128 T01720144
KCLL 211453Z 17005KT 10SM FEW019 SCT026 BKN035 16/14 A2993 RMK AO2 SLP133 T01560139 53010
KCLL 211353Z 14004KT 9SM OVC037 13/12 A2992 RMK AO2 SLP130 T01330122
KCLL 211253Z AUTO 15004KT 10SM FEW024 OVC039 12/11 A2991 RMK AO2 SLP125 T01220111
KCLL 211201Z AUTO 15005KT 10SM SCT028 SCT044 12/11 A2990 RMK AO2 T01170106 $
KCLL 211153Z AUTO 15004KT 10SM BKN028 12/11 A2990 RMK AO2 SLP122 T01170106 10117 20106 58010 $
KCLL 211053Z AUTO 13005KT 10SM FEW026 SCT033 BKN045 12/11 A2991 RMK AO2 SLP125 T01170106 $
KCLL 210953Z AUTO 12004KT 10SM OVC043 12/11 A2993 RMK AO2 SLP131 T01170106 $
KCLL 210853Z AUTO 16004KT 10SM CLR 11/09 A2993 RMK AO2 SLP133 T01060094 56021 $
KCLL 210753Z AUTO 14005KT 10SM CLR 11/09 A2995 RMK AO2 SLP138 T01110094 $
KCLL 210653Z AUTO 15005KT 10SM CLR 11/09 A2998 RMK AO2 SLP148 T01060094 $
KCLL 210553Z AUTO 16004KT 10SM CLR 11/09 A2999 RMK AO2 SLP154 T01110094 10161 20111 402060050 $
KCLL 210453Z AUTO 15005KT 10SM CLR 12/09 A3002 RMK AO2 SLP163 T01170089 $
KCLL 210353Z AUTO 17008KT 10SM CLR 13/09 A3001 RMK AO2 SLP161 T01330094 $
KCLL 210253Z AUTO 17006KT 10SM CLR 13/09 A3002 RMK AO2 SLP165 T01330089 $
KCLL 210153Z 16006KT 10SM CLR 14/08 A3002 RMK AO2 SLP165 T01390083
KCLL 210053Z 16004KT 10SM CLR 15/07 A3003 RMK AO2 SLP167 T01500072
KCLL 202353Z 16003KT 10SM CLR 16/07 A3003 RMK AO2 SLP168 T01610072 10206 20161 56006
KCLL 202253Z 20007KT 10SM CLR 19/06 A3004 RMK AO2 SLP170 T01890061
KCLL 202153Z 21009KT 10SM CLR 20/07 A3003 RMK AO2 SLP168 T02000067
KCLL 202053Z 19012KT 10SM CLR 20/06 A3005 RMK AO2 SLP174 T02000056 56045
KCLL 201953Z 16010KT 10SM CLR 19/04 A3008 RMK AO2 SLP185 T01890044
KCLL 201853Z 17013G18KT 10SM CLR 18/04 A3013 RMK AO2 SLP201 T01830044
KCLL 201753Z 16009G16KT 10SM CLR 17/02 A3019 RMK AO2 SLP220 T01720017 10178 20067 58016